sensor_id;sensor_type;location;lat;lon;timestamp;pressure;altitude;pressure_sealevel;temperature;humidity
76866;BME280;66647;52.124;5.416;2023-11-21T00:02:41;101216.31;;;6.01;100.00
76866;BME280;66647;52.124;5.416;2023-11-21T00:05:09;101221.22;;;5.99;100.00
76866;BME280;66647;52.124;5.416;2023-11-21T00:07:37;101216.59;;;6.00;100.00
76866;BME280;66647;52.124;5.416;2023-11-21T00:10:04;101215.78;;;5.99;100.00
76866;BME280;66647;52.124;5.416;2023-11-21T00:12:51;101220.66;;;6.02;100.00
76866;BME280;66647;52.124;5.416;2023-11-21T00:15:18;101226.63;;;6.04;100.00
76866;BME280;66647;52.124;5.416;2023-11-21T00:17:45;101226.69;;;5.99;100.00
76866;BME280;66647;52.124;5.416;2023-11-21T00:20:12;101227.50;;;6.00;100.00
76866;BME280;66647;52.124;5.416;2023-11-21T00:22:40;101230.50;;;5.98;100.00
76866;BME280;66647;52.124;5.416;2023-11-21T00:25:07;101236.75;;;5.99;100.00
76866;BME280;66647;52.124;5.416;2023-11-21T00:27:36;101230.78;;;5.97;100.00
76866;BME280;66647;52.124;5.416;2023-11-21T00:30:03;101241.94;;;5.95;100.00
76866;BME280;66647;52.124;5.416;2023-11-21T00:32:32;101232.16;;;5.94;100.00
76866;BME280;66647;52.124;5.416;2023-11-21T00:34:59;101243.88;;;5.95;100.00
76866;BME280;66647;52.124;5.416;2023-11-21T00:37:27;101236.50;;;5.95;100.00
76866;BME280;66647;52.124;5.416;2023-11-21T00:39:54;101232.16;;;5.94;100.00
76866;BME280;66647;52.124;5.416;2023-11-21T00:42:23;101244.16;;;5.93;100.00
76866;BME280;66647;52.124;5.416;2023-11-21T00:44:50;101245.25;;;5.92;100.00
76866;BME280;66647;52.124;5.416;2023-11-21T00:47:16;101245.81;;;5.89;100.00
76866;BME280;66647;52.124;5.416;2023-11-21T00:49:43;101250.16;;;5.85;100.00
76866;BME280;66647;52.124;5.416;2023-11-21T00:52:10;101240.41;;;5.84;100.00
76866;BME280;66647;52.124;5.416;2023-11-21T00:54:37;101246.94;;;5.83;100.00
76866;BME280;66647;52.124;5.416;2023-11-21T00:57:04;101244.50;;;5.82;100.00
76866;BME280;66647;52.124;5.416;2023-11-21T00:59:31;101256.75;;;5.79;100.00
76866;BME280;66647;52.124;5.416;2023-11-21T01:01:57;101257.56;;;5.80;100.00
76866;BME280;66647;52.124;5.416;2023-11-21T01:04:27;101266.84;;;5.79;100.00
76866;BME280;66647;52.124;5.416;2023-11-21T01:06:53;101269.03;;;5.77;100.00
76866;BME280;66647;52.124;5.416;2023-11-21T01:09:20;101268.22;;;5.76;100.00
76866;BME280;66647;52.124;5.416;2023-11-21T01:11:46;101273.66;;;5.76;100.00
76866;BME280;66647;52.124;5.416;2023-11-21T01:14:13;101282.06;;;5.80;100.00
76866;BME280;66647;52.124;5.416;2023-11-21T01:16:40;101283.16;;;5.79;100.00
76866;BME280;66647;52.124;5.416;2023-11-21T01:19:08;101283.72;;;5.76;100.00
76866;BME280;66647;52.124;5.416;2023-11-21T01:21:36;101279.66;;;5.73;100.00
76866;BME280;66647;52.124;5.416;2023-11-21T01:24:04;101277.22;;;5.71;100.00
76866;BME280;66647;52.124;5.416;2023-11-21T01:26:36;101276.66;;;5.74;100.00
76866;BME280;66647;52.124;5.416;2023-11-21T01:29:03;101267.16;;;5.72;100.00
76866;BME280;66647;52.124;5.416;2023-11-21T01:31:29;101273.69;;;5.71;100.00
76866;BME280;66647;52.124;5.416;2023-11-21T01:33:56;101272.59;;;5.72;100.00
76866;BME280;66647;52.124;5.416;2023-11-21T01:36:33;101279.66;;;5.73;100.00
76866;BME280;66647;52.124;5.416;2023-11-21T01:39:01;101278.84;;;5.72;100.00
76866;BME280;66647;52.124;5.416;2023-11-21T01:41:27;101284.81;;;5.74;100.00
76866;BME280;66647;52.124;5.416;2023-11-21T01:43:55;101279.91;;;5.77;100.00
76866;BME280;66647;52.124;5.416;2023-11-21T01:46:23;101279.09;;;5.76;100.00
76866;BME280;66647;52.124;5.416;2023-11-21T01:48:50;101282.34;;;5.78;100.00
76866;BME280;66647;52.124;5.416;2023-11-21T01:51:17;101287.22;;;5.81;100.00
76866;BME280;66647;52.124;5.416;2023-11-21T01:53:45;101285.03;;;5.83;100.00
76866;BME280;66647;52.124;5.416;2023-11-21T01:56:13;101295.34;;;5.86;100.00
76866;BME280;66647;52.124;5.416;2023-11-21T01:58:40;101298.34;;;5.90;100.00
76866;BME280;66647;52.124;5.416;2023-11-21T02:01:08;101293.69;;;5.90;100.00
76866;BME280;66647;52.124;5.416;2023-11-21T02:03:36;101302.94;;;5.94;100.00
76866;BME280;66647;52.124;5.416;2023-11-21T02:09:56;101306.72;;;5.98;100.00
76866;BME280;66647;52.124;5.416;2023-11-21T02:12:23;101307.81;;;5.97;100.00
76866;BME280;66647;52.124;5.416;2023-11-21T02:14:53;101314.06;;;5.98;100.00
76866;BME280;66647;52.124;5.416;2023-11-21T02:17:19;101323.00;;;6.03;100.00
76866;BME280;66647;52.124;5.416;2023-11-21T02:19:46;101324.63;;;6.04;100.00
76866;BME280;66647;52.124;5.416;2023-11-21T02:22:18;101324.63;;;6.04;100.00
76866;BME280;66647;52.124;5.416;2023-11-21T02:24:46;101317.84;;;6.02;100.00
76866;BME280;66647;52.124;5.416;2023-11-21T02:27:13;101326.84;;;6.02;100.00
76866;BME280;66647;52.124;5.416;2023-11-21T02:29:41;101322.19;;;6.03;100.00
76866;BME280;66647;52.124;5.416;2023-11-21T02:32:07;101325.44;;;6.05;100.00
76866;BME280;66647;52.124;5.416;2023-11-21T02:34:37;101328.16;;;6.10;100.00
76866;BME280;66647;52.124;5.416;2023-11-21T02:37:04;101333.84;;;6.14;100.00
76866;BME280;66647;52.124;5.416;2023-11-21T02:39:32;101331.13;;;6.14;100.00
76866;BME280;66647;52.124;5.416;2023-11-21T02:41:58;101332.75;;;6.15;100.00
76866;BME280;66647;52.124;5.416;2023-11-21T02:44:25;101333.78;;;6.19;100.00
76866;BME280;66647;52.124;5.416;2023-11-21T02:46:52;101334.59;;;6.19;100.00
76866;BME280;66647;52.124;5.416;2023-11-21T02:49:19;101334.31;;;6.21;100.00
76866;BME280;66647;52.124;5.416;2023-11-21T02:51:45;101340.28;;;6.23;100.00
76866;BME280;66647;52.124;5.416;2023-11-21T02:54:12;101333.16;;;6.27;100.00
76866;BME280;66647;52.124;5.416;2023-11-21T02:56:39;101330.97;;;6.29;100.00
76866;BME280;66647;52.124;5.416;2023-11-21T02:59:06;101338.03;;;6.30;100.00
76866;BME280;66647;52.124;5.416;2023-11-21T03:01:32;101335.56;;;6.33;100.00
76866;BME280;66647;52.124;5.416;2023-11-21T03:03:59;101328.22;;;6.34;100.00
76866;BME280;66647;52.124;5.416;2023-11-21T03:06:26;101340.72;;;6.35;100.00
76866;BME280;66647;52.124;5.416;2023-11-21T03:08:53;101338.53;;;6.37;100.00
76866;BME280;66647;52.124;5.416;2023-11-21T03:11:19;101335.81;;;6.37;100.00
76866;BME280;66647;52.124;5.416;2023-11-21T03:13:46;101334.72;;;6.38;100.00
76866;BME280;66647;52.124;5.416;2023-11-21T03:16:12;101330.09;;;6.38;100.00
76866;BME280;66647;52.124;5.416;2023-11-21T03:18:39;101328.69;;;6.41;100.00
76866;BME280;66647;52.124;5.416;2023-11-21T03:21:07;101336.88;;;6.41;100.00
76866;BME280;66647;52.124;5.416;2023-11-21T03:23:37;101342.28;;;6.46;100.00
76866;BME280;66647;52.124;5.416;2023-11-21T03:26:04;101339.56;;;6.46;100.00
76866;BME280;66647;52.124;5.416;2023-11-21T03:28:30;101334.91;;;6.47;100.00
76866;BME280;66647;52.124;5.416;2023-11-21T03:30:57;101340.09;;;6.48;100.00
76866;BME280;66647;52.124;5.416;2023-11-21T03:33:26;101336.25;;;6.49;100.00
76866;BME280;66647;52.124;5.416;2023-11-21T03:35:52;101340.59;;;6.50;100.00
76866;BME280;66647;52.124;5.416;2023-11-21T03:38:19;101334.03;;;6.51;100.00
76866;BME280;66647;52.124;5.416;2023-11-21T03:40:46;101337.84;;;6.50;100.00
76866;BME280;66647;52.124;5.416;2023-11-21T03:43:14;101343.03;;;6.52;100.00
76866;BME280;66647;52.124;5.416;2023-11-21T03:45:41;101344.38;;;6.54;100.00
76866;BME280;66647;52.124;5.416;2023-11-21T03:48:08;101342.44;;;6.55;100.00
76866;BME280;66647;52.124;5.416;2023-11-21T03:50:37;101351.44;;;6.55;100.00
76866;BME280;66647;52.124;5.416;2023-11-21T03:53:05;101354.69;;;6.57;100.00
76866;BME280;66647;52.124;5.416;2023-11-21T03:55:32;101356.31;;;6.58;100.00
76866;BME280;66647;52.124;5.416;2023-11-21T03:57:58;101361.75;;;6.58;100.00
76866;BME280;66647;52.124;5.416;2023-11-21T04:00:25;101366.94;;;6.60;100.00
76866;BME280;66647;52.124;5.416;2023-11-21T04:02:55;101373.72;;;6.62;100.00
76866;BME280;66647;52.124;5.416;2023-11-21T04:05:23;101368.00;;;6.64;100.00
76866;BME280;66647;52.124;5.416;2023-11-21T04:07:50;101370.72;;;6.64;100.00
76866;BME280;66647;52.124;5.416;2023-11-21T04:10:20;101367.69;;;6.65;100.00
76866;BME280;66647;52.124;5.416;2023-11-21T04:12:46;101376.41;;;6.67;100.00
76866;BME280;66647;52.124;5.416;2023-11-21T04:15:13;101382.38;;;6.69;100.00
76866;BME280;66647;52.124;5.416;2023-11-21T04:17:41;101387.84;;;6.69;100.00
76866;BME280;66647;52.124;5.416;2023-11-21T04:20:09;101389.19;;;6.72;100.00
76866;BME280;66647;52.124;5.416;2023-11-21T04:22:40;101386.44;;;6.72;100.00
76866;BME280;66647;52.124;5.416;2023-11-21T04:25:11;101392.72;;;6.72;100.00
76866;BME280;66647;52.124;5.416;2023-11-21T04:27:42;101395.97;;;6.74;100.00
76866;BME280;66647;52.124;5.416;2023-11-21T04:30:12;101404.16;;;6.74;100.00
76866;BME280;66647;52.124;5.416;2023-11-21T04:32:39;101400.31;;;6.76;100.00
76866;BME280;66647;52.124;5.416;2023-11-21T04:35:07;101403.63;;;6.72;100.00
76866;BME280;66647;52.124;5.416;2023-11-21T04:37:35;101402.53;;;6.73;100.00
76866;BME280;66647;52.124;5.416;2023-11-21T04:40:02;101416.97;;;6.74;100.00
76866;BME280;66647;52.124;5.416;2023-11-21T04:42:36;101416.69;;;6.76;100.00
76866;BME280;66647;52.124;5.416;2023-11-21T04:45:05;101423.75;;;6.77;100.00
76866;BME280;66647;52.124;5.416;2023-11-21T04:47:35;101423.75;;;6.77;100.00
76866;BME280;66647;52.124;5.416;2023-11-21T04:50:02;101427.28;;;6.77;100.00
76866;BME280;66647;52.124;5.416;2023-11-21T04:52:29;101424.28;;;6.79;100.00
76866;BME280;66647;52.124;5.416;2023-11-21T04:54:56;101424.81;;;6.81;100.00
76866;BME280;66647;52.124;5.416;2023-11-21T04:57:24;101430.25;;;6.81;100.00
76866;BME280;66647;52.124;5.416;2023-11-21T04:59:51;101426.44;;;6.82;100.00
76866;BME280;66647;52.124;5.416;2023-11-21T05:02:17;101414.41;;;6.83;100.00
76866;BME280;66647;52.124;5.416;2023-11-21T05:05:02;101425.03;;;6.84;100.00
76866;BME280;66647;52.124;5.416;2023-11-21T05:07:29;101435.66;;;6.86;100.00
76866;BME280;66647;52.124;5.416;2023-11-21T05:09:58;101436.47;;;6.86;100.00
76866;BME280;66647;52.124;5.416;2023-11-21T05:12:25;101438.09;;;6.87;100.00
76866;BME280;66647;52.124;5.416;2023-11-21T05:14:51;101443.25;;;6.89;100.00
76866;BME280;66647;52.124;5.416;2023-11-21T05:17:18;101444.06;;;6.89;100.00
76866;BME280;66647;52.124;5.416;2023-11-21T05:19:45;101446.50;;;6.91;100.00
76866;BME280;66647;52.124;5.416;2023-11-21T05:22:15;101453.59;;;6.92;100.00
76866;BME280;66647;52.124;5.416;2023-11-21T05:24:42;101448.38;;;6.95;100.00
76866;BME280;66647;52.124;5.416;2023-11-21T05:27:08;101453.81;;;6.95;100.00
76866;BME280;66647;52.124;5.416;2023-11-21T05:29:36;101447.56;;;6.95;100.00
76866;BME280;66647;52.124;5.416;2023-11-21T05:32:04;101450.00;;;6.96;100.00
76866;BME280;66647;52.124;5.416;2023-11-21T05:34:31;101457.63;;;6.99;100.00
76866;BME280;66647;52.124;5.416;2023-11-21T05:36:57;101458.44;;;7.00;100.00
76866;BME280;66647;52.124;5.416;2023-11-21T05:39:25;101461.16;;;7.00;100.00
76866;BME280;66647;52.124;5.416;2023-11-21T05:41:51;101458.97;;;7.02;100.00
76866;BME280;66647;52.124;5.416;2023-11-21T05:44:18;101466.03;;;7.03;100.00
76866;BME280;66647;52.124;5.416;2023-11-21T05:46:45;101473.13;;;7.04;100.00
76866;BME280;66647;52.124;5.416;2023-11-21T05:49:11;101470.38;;;7.04;100.00
76866;BME280;66647;52.124;5.416;2023-11-21T05:51:38;101474.75;;;7.05;100.00
76866;BME280;66647;52.124;5.416;2023-11-21T05:54:05;101476.38;;;7.06;100.00
76866;BME280;66647;52.124;5.416;2023-11-21T05:56:31;101481.81;;;7.06;100.00
76866;BME280;66647;52.124;5.416;2023-11-21T05:58:58;101482.34;;;7.08;100.00
76866;BME280;66647;52.124;5.416;2023-11-21T06:01:26;101492.16;;;7.09;100.00
76866;BME280;66647;52.124;5.416;2023-11-21T06:03:55;101494.59;;;7.11;100.00
76866;BME280;66647;52.124;5.416;2023-11-21T06:06:22;101489.97;;;7.11;100.00
76866;BME280;66647;52.124;5.416;2023-11-21T06:08:50;101495.41;;;7.11;100.00
76866;BME280;66647;52.124;5.416;2023-11-21T06:11:17;101498.69;;;7.13;100.00
76866;BME280;66647;52.124;5.416;2023-11-21T06:13:44;101507.97;;;7.12;100.00
76866;BME280;66647;52.124;5.416;2023-11-21T06:16:10;101507.34;;;7.15;100.00
76866;BME280;66647;52.124;5.416;2023-11-21T06:18:39;101508.97;;;7.16;100.00
76866;BME280;66647;52.124;5.416;2023-11-21T06:21:09;101511.44;;;7.18;100.00
76866;BME280;66647;52.124;5.416;2023-11-21T06:23:37;101517.13;;;7.21;100.00
76866;BME280;66647;52.124;5.416;2023-11-21T06:26:04;101513.81;;;7.24;100.00
76866;BME280;66647;52.124;5.416;2023-11-21T06:28:31;101511.63;;;7.26;100.00
76866;BME280;66647;52.124;5.416;2023-11-21T06:30:58;101519.25;;;7.29;100.00
76866;BME280;66647;52.124;5.416;2023-11-21T06:33:25;101520.06;;;7.30;100.00
76866;BME280;66647;52.124;5.416;2023-11-21T06:35:54;101529.59;;;7.32;100.00
76866;BME280;66647;52.124;5.416;2023-11-21T06:38:21;101528.47;;;7.33;100.00
76866;BME280;66647;52.124;5.416;2023-11-21T06:40:48;101523.56;;;7.35;100.00
76866;BME280;66647;52.124;5.416;2023-11-21T06:43:14;101531.44;;;7.37;100.00
76866;BME280;66647;52.124;5.416;2023-11-21T06:45:41;101530.06;;;7.39;100.00
76866;BME280;66647;52.124;5.416;2023-11-21T06:48:08;101536.34;;;7.40;100.00
76866;BME280;66647;52.124;5.416;2023-11-21T06:50:35;101533.31;;;7.41;100.00
76866;BME280;66647;52.124;5.416;2023-11-21T06:53:01;101542.84;;;7.44;100.00
76866;BME280;66647;52.124;5.416;2023-11-21T06:55:30;101546.91;;;7.47;100.00
76866;BME280;66647;52.124;5.416;2023-11-21T06:57:57;101543.06;;;7.48;100.00
76866;BME280;66647;52.124;5.416;2023-11-21T07:00:24;101547.13;;;7.50;100.00
76866;BME280;66647;52.124;5.416;2023-11-21T07:02:51;101546.84;;;7.52;100.00
76866;BME280;66647;52.124;5.416;2023-11-21T07:05:17;101556.38;;;7.54;100.00
76866;BME280;66647;52.124;5.416;2023-11-21T07:07:48;101560.44;;;7.57;100.00
76866;BME280;66647;52.124;5.416;2023-11-21T07:10:15;101568.06;;;7.60;100.00
76866;BME280;66647;52.124;5.416;2023-11-21T07:12:43;101568.00;;;7.65;100.00
76866;BME280;66647;52.124;5.416;2023-11-21T07:15:10;101571.28;;;7.67;100.00
76866;BME280;66647;52.124;5.416;2023-11-21T07:17:36;101570.69;;;7.70;100.00
76866;BME280;66647;52.124;5.416;2023-11-21T07:20:07;101577.22;;;7.74;100.00
76866;BME280;66647;52.124;5.416;2023-11-21T07:22:34;101582.09;;;7.77;100.00
76866;BME280;66647;52.124;5.416;2023-11-21T07:25:00;101591.31;;;7.81;100.00
76866;BME280;66647;52.124;5.416;2023-11-21T07:27:27;101591.53;;;7.85;100.00
76866;BME280;66647;52.124;5.416;2023-11-21T07:29:53;101597.25;;;7.88;100.00
76866;BME280;66647;52.124;5.416;2023-11-21T07:32:20;101597.78;;;7.90;100.00
76866;BME280;66647;52.124;5.416;2023-11-21T07:34:47;101592.84;;;7.92;100.00
76866;BME280;66647;52.124;5.416;2023-11-21T07:37:13;101597.72;;;7.95;100.00
76866;BME280;66647;52.124;5.416;2023-11-21T07:39:40;101595.00;;;7.95;100.00
76866;BME280;66647;52.124;5.416;2023-11-21T07:42:08;101600.16;;;7.97;100.00
76866;BME280;66647;52.124;5.416;2023-11-21T07:44:35;101603.41;;;7.99;100.00
76866;BME280;66647;52.124;5.416;2023-11-21T07:47:02;101605.88;;;8.00;100.00
76866;BME280;66647;52.124;5.416;2023-11-21T07:49:31;101614.88;;;8.01;100.00
76866;BME280;66647;52.124;5.416;2023-11-21T07:51:57;101610.75;;;8.03;100.00
76866;BME280;66647;52.124;5.416;2023-11-21T07:54:24;101614.00;;;8.05;100.00
76866;BME280;66647;52.124;5.416;2023-11-21T07:56:51;101626.56;;;8.06;100.00
76866;BME280;66647;52.124;5.416;2023-11-21T07:59:17;101628.72;;;8.09;100.00
76866;BME280;66647;52.124;5.416;2023-11-21T08:01:44;101625.09;;;8.14;100.00
76866;BME280;66647;52.124;5.416;2023-11-21T08:04:12;101628.88;;;8.18;100.00
76866;BME280;66647;52.124;5.416;2023-11-21T08:06:42;101638.66;;;8.24;100.00
76866;BME280;66647;52.124;5.416;2023-11-21T08:09:08;101642.13;;;8.30;100.00
76866;BME280;66647;52.124;5.416;2023-11-21T08:11:38;101645.41;;;8.32;100.00
76866;BME280;66647;52.124;5.416;2023-11-21T08:14:05;101653.03;;;8.35;100.00
76866;BME280;66647;52.124;5.416;2023-11-21T08:16:32;101661.47;;;8.38;100.00
76866;BME280;66647;52.124;5.416;2023-11-21T08:19:02;101664.75;;;8.40;100.00
76866;BME280;66647;52.124;5.416;2023-11-21T08:21:29;101670.44;;;8.44;100.00
76866;BME280;66647;52.124;5.416;2023-11-21T08:23:56;101681.56;;;8.48;100.00
76866;BME280;66647;52.124;5.416;2023-11-21T08:26:23;101676.34;;;8.51;100.00
76866;BME280;66647;52.124;5.416;2023-11-21T08:28:50;101680.41;;;8.54;100.00
76866;BME280;66647;52.124;5.416;2023-11-21T08:31:24;101683.38;;;8.57;100.00
76866;BME280;66647;52.124;5.416;2023-11-21T08:33:53;101695.66;;;8.60;100.00
76866;BME280;66647;52.124;5.416;2023-11-21T08:36:23;101705.19;;;8.62;100.00
76866;BME280;66647;52.124;5.416;2023-11-21T08:38:51;101701.34;;;8.63;100.00
76866;BME280;66647;52.124;5.416;2023-11-21T08:41:19;101718.28;;;8.65;100.00
76866;BME280;66647;52.124;5.416;2023-11-21T08:43:49;101718.28;;;8.65;100.00
76866;BME280;66647;52.124;5.416;2023-11-21T08:46:18;101718.00;;;8.67;100.00
76866;BME280;66647;52.124;5.416;2023-11-21T08:48:50;101712.25;;;8.68;100.00
76866;BME280;66647;52.124;5.416;2023-11-21T08:51:20;101724.22;;;8.72;100.00
76866;BME280;66647;52.124;5.416;2023-11-21T08:53:47;101721.72;;;8.76;100.00
76866;BME280;66647;52.124;5.416;2023-11-21T08:56:15;101723.03;;;8.79;100.00
76866;BME280;66647;52.124;5.416;2023-11-21T08:58:42;101725.47;;;8.80;100.00
76866;BME280;66647;52.124;5.416;2023-11-21T09:01:09;101729.03;;;8.81;100.00
76866;BME280;66647;52.124;5.416;2023-11-21T09:03:35;101721.88;;;8.85;100.00
76866;BME280;66647;52.124;5.416;2023-11-21T09:06:05;101722.34;;;8.92;100.00
76866;BME280;66647;52.124;5.416;2023-11-21T09:08:36;101736.69;;;9.02;100.00
76866;BME280;66647;52.124;5.416;2023-11-21T09:11:04;101742.63;;;9.09;100.00
76866;BME280;66647;52.124;5.416;2023-11-21T09:13:32;101757.31;;;9.14;100.00
76866;BME280;66647;52.124;5.416;2023-11-21T09:16:04;101761.94;;;9.18;100.00
76866;BME280;66647;52.124;5.416;2023-11-21T09:18:39;101760.00;;;9.19;100.00
76866;BME280;66647;52.124;5.416;2023-11-21T09:21:08;101762.22;;;9.17;100.00
76866;BME280;66647;52.124;5.416;2023-11-21T09:23:48;101771.25;;;9.17;100.00
76866;BME280;66647;52.124;5.416;2023-11-21T09:26:14;101771.25;;;9.17;100.00
76866;BME280;66647;52.124;5.416;2023-11-21T09:28:47;101769.63;;;9.16;100.00
76866;BME280;66647;52.124;5.416;2023-11-21T09:31:14;101775.91;;;9.17;100.00
76866;BME280;66647;52.124;5.416;2023-11-21T09:33:48;101777.00;;;9.16;100.00
76866;BME280;66647;52.124;5.416;2023-11-21T09:36:27;101786.03;;;9.16;100.00
76866;BME280;66647;52.124;5.416;2023-11-21T09:38:56;101796.97;;;9.16;100.00
76866;BME280;66647;52.124;5.416;2023-11-21T09:41:37;101799.72;;;9.16;100.00
76866;BME280;66647;52.124;5.416;2023-11-21T09:44:08;101804.66;;;9.14;100.00
76866;BME280;66647;52.124;5.416;2023-11-21T09:46:37;101806.59;;;9.14;100.00
76866;BME280;66647;52.124;5.416;2023-11-21T09:49:08;101810.72;;;9.11;100.00
76866;BME280;66647;52.124;5.416;2023-11-21T09:51:40;101814.06;;;9.08;100.00
76866;BME280;66647;52.124;5.416;2023-11-21T09:54:10;101823.38;;;9.07;100.00
76866;BME280;66647;52.124;5.416;2023-11-21T09:56:38;101828.31;;;9.05;100.00
76866;BME280;66647;52.124;5.416;2023-11-21T09:59:05;101832.69;;;9.06;100.00
76866;BME280;66647;52.124;5.416;2023-11-21T10:01:36;101833.22;;;9.08;100.00
76866;BME280;66647;52.124;5.416;2023-11-21T10:04:04;101830.78;;;9.06;100.00
76866;BME280;66647;52.124;5.416;2023-11-21T10:06:32;101832.69;;;9.06;100.00
76866;BME280;66647;52.124;5.416;2023-11-21T10:08:59;101837.63;;;9.04;100.00
76866;BME280;66647;52.124;5.416;2023-11-21T10:11:28;101835.19;;;9.02;100.00
76866;BME280;66647;52.124;5.416;2023-11-21T10:13:59;101840.38;;;9.04;100.00
76866;BME280;66647;52.124;5.416;2023-11-21T10:16:27;101844.22;;;9.03;100.00
76866;BME280;66647;52.124;5.416;2023-11-21T10:18:57;101854.34;;;9.02;100.00
76866;BME280;66647;52.124;5.416;2023-11-21T10:21:39;101857.88;;;9.03;100.00
76866;BME280;66647;52.124;5.416;2023-11-21T10:24:06;101860.06;;;9.06;100.00
76866;BME280;66647;52.124;5.416;2023-11-21T10:26:33;101868.50;;;9.09;100.00
76866;BME280;66647;52.124;5.416;2023-11-21T10:29:16;101867.31;;;9.16;100.00
76866;BME280;66647;52.124;5.416;2023-11-21T10:31:45;101879.88;;;9.17;100.00
76866;BME280;66647;52.124;5.416;2023-11-21T10:34:19;101874.94;;;9.19;100.00
76866;BME280;66647;52.124;5.416;2023-11-21T10:36:46;101871.91;;;9.20;100.00
76866;BME280;66647;52.124;5.416;2023-11-21T10:39:20;101883.72;;;9.16;100.00
76866;BME280;66647;52.124;5.416;2023-11-21T10:41:50;101892.22;;;9.14;100.00
76866;BME280;66647;52.124;5.416;2023-11-21T10:44:18;101900.19;;;9.10;100.00
76866;BME280;66647;52.124;5.416;2023-11-21T10:46:52;101901.63;;;9.08;100.00
76866;BME280;66647;52.124;5.416;2023-11-21T10:49:24;101918.59;;;9.05;100.00
76866;BME280;66647;52.124;5.416;2023-11-21T10:51:53;101918.91;;;9.03;100.00
76866;BME280;66647;52.124;5.416;2023-11-21T10:54:20;101930.41;;;9.00;100.00
76866;BME280;66647;52.124;5.416;2023-11-21T10:57:06;101918.66;;;9.00;100.00
76866;BME280;66647;52.124;5.416;2023-11-21T10:59:34;101931.22;;;9.01;100.00
76866;BME280;66647;52.124;5.416;2023-11-21T11:02:18;101935.59;;;9.02;100.00
76866;BME280;66647;52.124;5.416;2023-11-21T11:04:48;101938.88;;;9.04;100.00
76866;BME280;66647;52.124;5.416;2023-11-21T11:07:16;101938.88;;;9.04;100.00
76866;BME280;66647;52.124;5.416;2023-11-21T11:09:44;101946.50;;;9.07;100.00
76866;BME280;66647;52.124;5.416;2023-11-21T11:12:12;101938.28;;;9.07;100.00
76866;BME280;66647;52.124;5.416;2023-11-21T11:14:41;101924.81;;;9.10;100.00
76866;BME280;66647;52.124;5.416;2023-11-21T11:17:07;101931.34;;;9.15;100.00
76866;BME280;66647;52.124;5.416;2023-11-21T11:19:36;101931.63;;;9.13;100.00
76866;BME280;66647;52.124;5.416;2023-11-21T11:22:29;101936.56;;;9.11;100.00
76866;BME280;66647;52.124;5.416;2023-11-21T11:28:08;101945.41;;;9.08;100.00
76866;BME280;66647;52.124;5.416;2023-11-21T11:36:06;101949.97;;;9.13;100.00
76866;BME280;66647;52.124;5.416;2023-11-21T11:38:34;101946.66;;;9.16;100.00
76866;BME280;66647;52.124;5.416;2023-11-21T11:41:03;101949.63;;;9.19;100.00
76866;BME280;66647;52.124;5.416;2023-11-21T11:43:31;101945.50;;;9.22;100.00
76866;BME280;66647;52.124;5.416;2023-11-21T11:46:11;101955.06;;;9.24;100.00
76866;BME280;66647;52.124;5.416;2023-11-21T11:48:40;101957.81;;;9.24;100.00
76866;BME280;66647;52.124;5.416;2023-11-21T11:51:15;101962.75;;;9.22;100.00
76866;BME280;66647;52.124;5.416;2023-11-21T11:53:47;101964.66;;;9.22;100.00
76866;BME280;66647;52.124;5.416;2023-11-21T11:56:29;101974.22;;;9.24;100.00
76866;BME280;66647;52.124;5.416;2023-11-21T11:59:02;101970.09;;;9.27;100.00
76866;BME280;66647;52.124;5.416;2023-11-21T12:01:57;101975.28;;;9.28;100.00
76866;BME280;66647;52.124;5.416;2023-11-21T12:04:24;101982.38;;;9.29;100.00
76866;BME280;66647;52.124;5.416;2023-11-21T12:07:00;101982.91;;;9.31;100.00
76866;BME280;66647;52.124;5.416;2023-11-21T12:09:30;101989.50;;;9.30;100.00
76866;BME280;66647;52.124;5.416;2023-11-21T12:11:58;101994.16;;;9.30;100.00
76866;BME280;66647;52.124;5.416;2023-11-21T12:14:25;101993.34;;;9.29;100.00
76866;BME280;66647;52.124;5.416;2023-11-21T12:16:52;102002.66;;;9.28;100.00
76866;BME280;66647;52.124;5.416;2023-11-21T12:19:22;102002.13;;;9.26;100.00
76866;BME280;66647;52.124;5.416;2023-11-21T12:21:49;101999.38;;;9.26;100.00
76866;BME280;66647;52.124;5.416;2023-11-21T12:24:37;102000.19;;;9.27;100.00
76866;BME280;66647;52.124;5.416;2023-11-21T12:27:05;102002.41;;;9.25;100.00
76866;BME280;66647;52.124;5.416;2023-11-21T12:29:51;102015.56;;;9.23;100.00
76866;BME280;66647;52.124;5.416;2023-11-21T12:32:19;102004.31;;;9.24;100.00
76866;BME280;66647;52.124;5.416;2023-11-21T12:34:48;102004.63;;;9.23;100.00
76866;BME280;66647;52.124;5.416;2023-11-21T12:37:14;102004.63;;;9.23;100.00
76866;BME280;66647;52.124;5.416;2023-11-21T12:39:41;102010.66;;;9.20;100.00
76866;BME280;66647;52.124;5.416;2023-11-21T12:42:09;102020.22;;;9.22;100.00
76866;BME280;66647;52.124;5.416;2023-11-21T12:44:36;102017.78;;;9.21;100.00
76866;BME280;66647;52.124;5.416;2023-11-21T12:47:07;102020.78;;;9.19;100.00
76866;BME280;66647;52.124;5.416;2023-11-21T12:49:40;102024.91;;;9.17;100.00
76866;BME280;66647;52.124;5.416;2023-11-21T12:52:10;102033.94;;;9.17;100.00
76866;BME280;66647;52.124;5.416;2023-11-21T12:54:38;102031.50;;;9.16;100.00
76866;BME280;66647;52.124;5.416;2023-11-21T12:57:05;102036.69;;;9.17;100.00
76866;BME280;66647;52.124;5.416;2023-11-21T12:59:34;102041.34;;;9.17;100.00
76866;BME280;66647;52.124;5.416;2023-11-21T13:02:01;102043.78;;;9.18;100.00
76866;BME280;66647;52.124;5.416;2023-11-21T13:04:32;102045.94;;;9.21;100.00
76866;BME280;66647;52.124;5.416;2023-11-21T13:07:05;102049.75;;;9.25;100.00
76866;BME280;66647;52.124;5.416;2023-11-21T13:09:40;102048.91;;;9.30;100.00
76866;BME280;66647;52.124;5.416;2023-11-21T13:12:12;102055.72;;;9.32;100.00